createdAt,value
2022-10-15T00:03:14.025Z,99.62
2022-10-15T00:08:39.395Z,97.43
2022-10-15T00:13:31.793Z,99.62
2022-10-15T00:18:31.745Z,98.22
2022-10-15T00:23:31.660Z,99.21
2022-10-15T00:28:33.593Z,99.38
2022-10-15T00:33:31.552Z,98.28
2022-10-15T00:38:31.459Z,98.45
2022-10-15T00:43:31.368Z,99.85
2022-10-15T00:48:31.313Z,98.51
2022-10-15T00:53:31.268Z,99.21
2022-10-15T00:58:31.174Z,100.03
2022-10-15T01:03:31.372Z,98.74
2022-10-15T01:08:31.070Z,99.38
2022-10-15T01:13:31.063Z,99.56
2022-10-15T01:18:30.917Z,99.85
2022-10-15T01:23:30.868Z,97.88
2022-10-15T01:28:30.816Z,99.26
2022-10-15T01:33:30.676Z,98.28
2022-10-15T01:38:30.644Z,98.80
2022-10-15T01:43:30.576Z,98.17
2022-10-15T01:48:30.502Z,98.92
2022-10-15T01:53:30.433Z,99.56
2022-10-15T01:58:30.367Z,98.28
2022-10-15T02:03:30.286Z,98.17
2022-10-15T02:08:30.239Z,99.44
2022-10-15T02:13:30.167Z,99.73
2022-10-15T02:18:30.193Z,98.45
2022-10-15T02:23:30.039Z,97.77
2022-10-15T02:28:30.034Z,98.63
2022-10-15T02:33:29.875Z,98.63
2022-10-15T02:38:29.847Z,98.28
2022-10-15T02:43:29.767Z,100.33
2022-10-15T02:48:29.744Z,98.45
2022-10-15T02:53:29.663Z,99.91
2022-10-15T02:58:29.568Z,99.68
2022-10-15T03:03:29.476Z,99.73
2022-10-15T03:08:29.419Z,99.62
2022-10-15T03:13:29.363Z,99.68
2022-10-15T03:18:29.271Z,99.97
2022-10-15T03:23:29.241Z,100.03
2022-10-15T03:28:29.223Z,98.74
2022-10-15T03:33:29.069Z,100.21
2022-10-15T03:38:29.020Z,98.40
2022-10-15T03:43:28.966Z,98.63
2022-10-15T03:48:28.877Z,99.26
2022-10-15T03:53:28.829Z,99.73
2022-10-15T03:58:28.720Z,99.03
2022-10-15T04:03:28.688Z,99.32
2022-10-15T04:08:28.600Z,100.75
2022-10-15T04:13:28.518Z,99.03
2022-10-15T04:18:38.211Z,99.68
2022-10-15T04:23:30.583Z,100.39
2022-10-15T04:28:30.606Z,100.27
2022-10-15T04:33:30.404Z,100.93
2022-10-15T04:38:30.344Z,100.51
2022-10-15T04:43:30.273Z,100.69
2022-10-15T04:48:30.247Z,101.05
2022-10-15T04:53:30.147Z,100.87
2022-10-15T04:58:30.095Z,101.66
2022-10-15T05:03:30.129Z,102.52
2022-10-15T05:08:29.956Z,101.11
2022-10-15T05:13:29.923Z,101.29
2022-10-15T05:18:29.860Z,101.23
2022-10-15T05:23:29.730Z,101.29
2022-10-15T05:28:29.726Z,100.99
2022-10-15T05:33:29.606Z,101.53
2022-10-15T05:38:29.537Z,101.29
2022-10-15T05:43:29.464Z,101.47
2022-10-15T05:48:29.477Z,100.93
2022-10-15T05:53:29.343Z,101.47
2022-10-15T05:58:32.048Z,100.39
2022-10-15T06:03:30.198Z,100.99
2022-10-15T06:08:29.131Z,101.17
2022-10-15T06:13:29.051Z,101.72
2022-10-15T06:18:29.002Z,101.41
2022-10-15T06:23:28.925Z,102.71
2022-10-15T06:28:28.874Z,102.52
2022-10-15T06:33:28.790Z,101.72
2022-10-15T06:38:28.736Z,100.75
2022-10-15T06:43:31.006Z,101.29
2022-10-15T06:48:28.597Z,101.60
2022-10-15T06:53:28.527Z,100.69
2022-10-15T06:58:28.437Z,100.99
2022-10-15T07:03:28.381Z,100.63
2022-10-15T07:08:28.332Z,99.79
2022-10-15T07:13:28.230Z,98.74
2022-10-15T07:18:28.228Z,97.88
2022-10-15T07:23:28.157Z,97.04
2022-10-15T07:28:28.108Z,95.88
2022-10-15T07:33:27.988Z,95.88
2022-10-15T07:38:27.922Z,95.77
2022-10-15T07:43:27.819Z,94.80
2022-10-15T07:48:27.783Z,94.64
2022-10-15T07:53:27.709Z,94.54
2022-10-15T07:58:27.652Z,94.80
2022-10-15T08:03:27.597Z,93.64
2022-10-15T08:08:27.485Z,94.22
2022-10-15T08:13:27.427Z,94.38
2022-10-15T08:18:27.637Z,94.48
2022-10-15T08:23:27.297Z,94.54
2022-10-15T08:28:27.297Z,93.85
2022-10-15T08:33:27.209Z,94.27
2022-10-15T08:38:27.087Z,93.80
2022-10-15T08:43:27.046Z,95.32
2022-10-15T08:48:26.973Z,93.83
2022-10-15T08:53:26.915Z,93.31
2022-10-15T08:58:26.835Z,92.90
2022-10-15T09:03:26.801Z,91.89
2022-10-15T09:08:26.709Z,92.50
2022-10-15T09:13:26.677Z,92.09
2022-10-15T09:18:26.839Z,92.19
2022-10-15T09:23:26.505Z,91.89
2022-10-15T09:28:26.461Z,91.69
2022-10-15T09:33:26.355Z,91.79
2022-10-15T09:38:26.286Z,91.39
2022-10-15T09:43:26.191Z,90.51
2022-10-15T09:48:26.170Z,90.41
2022-10-15T09:53:28.184Z,90.71
2022-10-15T09:58:26.006Z,89.74
2022-10-15T10:03:25.946Z,88.80
2022-10-15T10:08:25.881Z,88.52
2022-10-15T10:13:25.801Z,88.33
2022-10-15T10:18:25.734Z,87.51
2022-10-15T10:23:25.894Z,86.70
2022-10-15T10:28:25.602Z,86.61
2022-10-15T10:33:25.558Z,87.06
2022-10-15T10:38:25.478Z,87.33
2022-10-15T10:43:25.369Z,86.08
2022-10-15T10:48:25.346Z,86.25
2022-10-15T10:53:25.280Z,86.08
2022-10-15T10:58:27.130Z,85.90
2022-10-15T11:03:25.220Z,86.08
2022-10-15T11:08:25.099Z,85.38
2022-10-15T11:13:27.583Z,84.95
2022-10-15T11:18:25.916Z,85.38
2022-10-15T11:23:27.243Z,84.95
2022-10-15T11:28:24.888Z,84.19
2022-10-15T11:33:24.744Z,83.44
2022-10-15T11:38:24.681Z,83.03
2022-10-15T11:43:24.608Z,83.19
2022-10-15T11:48:24.537Z,84.02
2022-10-15T11:53:24.460Z,83.28
2022-10-15T11:58:24.355Z,82.87
2022-10-15T12:03:24.316Z,82.46
2022-10-15T12:08:24.255Z,81.90
2022-10-15T12:13:24.175Z,82.14
2022-10-15T12:18:24.128Z,81.35
2022-10-15T12:23:24.052Z,82.14
2022-10-15T12:28:24.089Z,81.43
2022-10-15T12:33:23.916Z,81.27
2022-10-15T12:38:23.854Z,80.96
2022-10-15T12:43:23.790Z,80.65
2022-10-15T12:48:23.724Z,79.58
2022-10-15T12:53:23.716Z,79.06
2022-10-15T12:58:23.575Z,79.14
2022-10-15T13:03:23.597Z,78.40
2022-10-15T13:08:23.549Z,78.40
2022-10-15T13:13:23.387Z,77.54
2022-10-15T13:18:23.293Z,78.04
2022-10-15T13:23:31.222Z,78.11
2022-10-15T13:28:24.509Z,77.89
2022-10-15T13:33:23.109Z,76.90
2022-10-15T13:38:23.200Z,76.41
2022-10-15T13:43:22.972Z,75.59
2022-10-15T13:48:22.912Z,76.14
2022-10-15T13:53:22.885Z,75.73
2022-10-15T13:58:26.486Z,76.41
2022-10-15T14:03:22.691Z,77.04
2022-10-15T14:08:22.620Z,76.90
2022-10-15T14:13:22.670Z,77.11
2022-10-15T14:18:22.491Z,76.90
2022-10-15T14:23:22.432Z,76.97
2022-10-15T14:28:22.439Z,77.25
2022-10-15T14:33:22.308Z,76.48
2022-10-15T14:38:22.236Z,76.69
2022-10-15T14:43:22.317Z,76.55
2022-10-15T14:48:22.230Z,77.11
2022-10-15T14:53:22.026Z,78.04
2022-10-15T14:58:22.001Z,78.33
2022-10-15T15:03:22.009Z,79.06
2022-10-15T15:08:21.859Z,78.77
2022-10-15T15:13:21.748Z,79.14
2022-10-15T15:18:21.691Z,79.51
2022-10-15T15:23:21.730Z,78.99
2022-10-15T15:28:21.648Z,79.06
2022-10-15T15:33:21.616Z,79.66
2022-10-15T15:38:21.563Z,79.96
2022-10-15T15:43:21.366Z,80.11
2022-10-15T15:48:21.273Z,80.19
2022-10-15T15:53:21.226Z,80.11
2022-10-15T15:58:21.186Z,80.04
2022-10-15T16:03:21.069Z,80.50
2022-10-15T16:08:21.077Z,80.88
2022-10-15T16:13:21.051Z,81.04
2022-10-15T16:18:20.907Z,81.11
2022-10-15T16:23:20.802Z,80.80
2022-10-15T16:28:20.763Z,81.19
2022-10-15T16:33:20.682Z,80.88
2022-10-15T16:38:20.619Z,81.27
2022-10-15T16:43:20.560Z,81.43
2022-10-15T16:48:20.481Z,81.90
2022-10-15T16:53:20.409Z,82.06
2022-10-15T16:58:20.363Z,82.06
2022-10-15T17:03:20.250Z,82.70
2022-10-15T17:08:22.346Z,83.03
2022-10-15T17:13:20.165Z,83.52
2022-10-15T17:18:20.052Z,84.19
2022-10-15T17:23:20.021Z,84.61
2022-10-15T17:33:19.853Z,85.73
2022-10-15T17:38:21.896Z,85.30
2022-10-15T17:43:19.743Z,86.25
2022-10-15T17:48:19.646Z,86.70
2022-10-15T17:53:19.591Z,86.61
2022-10-15T17:58:19.555Z,86.52
2022-10-15T18:03:19.441Z,86.61
2022-10-15T18:08:19.396Z,86.61
2022-10-15T18:13:19.332Z,86.97
2022-10-15T18:18:19.235Z,87.42
2022-10-15T18:23:19.229Z,87.42
2022-10-15T18:28:19.195Z,87.51
2022-10-15T18:33:19.039Z,87.60
2022-10-15T18:38:19.062Z,87.69
2022-10-15T18:43:19.581Z,87.60
2022-10-15T18:48:18.846Z,87.78
2022-10-15T18:53:18.791Z,87.15
2022-10-15T18:58:19.157Z,87.78
2022-10-15T19:03:18.627Z,87.87
2022-10-15T19:08:20.834Z,87.87
2022-10-15T19:13:18.522Z,87.60
2022-10-15T19:18:18.437Z,88.24
2022-10-15T19:23:18.700Z,88.33
2022-10-15T19:28:18.370Z,88.24
2022-10-15T19:33:18.251Z,88.52
2022-10-15T19:38:18.205Z,88.42
2022-10-15T19:43:18.094Z,88.70
2022-10-15T19:48:18.081Z,88.80
2022-10-15T19:53:17.955Z,88.98
2022-10-15T19:58:17.941Z,88.52
2022-10-15T20:03:17.842Z,88.98
2022-10-15T20:08:17.783Z,89.36
2022-10-15T20:13:17.758Z,89.08
2022-10-15T20:18:17.653Z,89.36
2022-10-15T20:23:17.579Z,89.93
2022-10-15T20:28:17.648Z,89.93
2022-10-15T20:33:17.561Z,90.51
2022-10-15T20:38:17.416Z,89.84
2022-10-15T20:43:17.287Z,90.41
2022-10-15T20:48:17.244Z,90.03
2022-10-15T20:53:17.179Z,89.93
2022-10-15T20:58:17.072Z,90.03
2022-10-15T21:03:17.399Z,90.80
2022-10-15T21:08:16.981Z,91.20
2022-10-15T21:13:16.919Z,90.51
2022-10-15T21:18:16.835Z,90.61
2022-10-15T21:23:16.759Z,91.00
2022-10-15T21:28:16.670Z,91.29
2022-10-15T21:33:16.606Z,91.29
2022-10-15T21:38:16.562Z,91.59
2022-10-15T21:43:16.573Z,91.79
2022-10-15T21:48:16.404Z,92.39
2022-10-15T21:53:16.351Z,92.50
2022-10-15T21:58:16.289Z,92.19
2022-10-15T22:03:16.208Z,93.00
2022-10-15T22:08:16.185Z,92.90
2022-10-15T22:13:16.058Z,93.00
2022-10-15T22:18:16.002Z,93.31
2022-10-15T22:23:15.949Z,93.52
2022-10-15T22:28:15.851Z,93.83
2022-10-15T22:33:15.823Z,94.36
2022-10-15T22:38:15.735Z,94.36
2022-10-15T22:43:15.655Z,94.68
2022-10-15T22:48:15.590Z,95.10
2022-10-15T22:53:15.537Z,95.10
2022-10-15T22:58:15.447Z,93.91
2022-10-15T23:03:15.424Z,94.12
2022-10-15T23:08:15.355Z,94.80
2022-10-15T23:13:15.241Z,95.34
2022-10-15T23:18:15.220Z,94.59
2022-10-15T23:23:15.124Z,97.15
2022-10-15T23:28:15.061Z,95.18
2022-10-15T23:33:14.986Z,97.04
2022-10-15T23:38:14.944Z,96.37
2022-10-15T23:43:14.858Z,96.59
2022-10-15T23:48:14.808Z,98.97
2022-10-15T23:53:14.720Z,98.40
2022-10-15T23:58:14.662Z,97.60
